createdAt,value
2022-09-13T00:00:50.639Z,8.53
2022-09-13T00:03:19.144Z,9.43
2022-09-13T00:05:50.962Z,9.20
2022-09-13T00:08:20.356Z,9.37
2022-09-13T00:10:49.207Z,8.67
2022-09-13T00:13:18.444Z,9.00
2022-09-13T00:15:47.929Z,8.17
2022-09-13T00:18:16.303Z,7.50
2022-09-13T00:20:44.288Z,8.50
2022-09-13T00:23:13.039Z,9.20
2022-09-13T00:25:42.362Z,7.80
2022-09-13T00:28:10.372Z,8.27
2022-09-13T00:30:38.335Z,7.80
2022-09-13T00:33:06.216Z,8.10
2022-09-13T00:35:34.073Z,8.60
2022-09-13T00:38:02.140Z,8.13
2022-09-13T00:40:31.102Z,8.90
2022-09-13T00:43:00.271Z,8.47
2022-09-13T00:45:28.393Z,9.20
2022-09-13T00:47:59.798Z,8.23
2022-09-13T00:50:32.960Z,9.73
2022-09-13T00:53:05.715Z,9.23
2022-09-13T00:55:39.555Z,9.13
2022-09-13T00:58:14.196Z,8.67
2022-09-13T01:00:42.332Z,8.83
2022-09-13T01:03:13.389Z,9.70
2022-09-13T01:05:44.936Z,8.63
2022-09-13T01:08:18.126Z,9.23
2022-09-13T01:10:47.641Z,9.27
2022-09-13T01:13:20.640Z,9.07
2022-09-13T01:15:48.507Z,8.43
2022-09-13T01:18:16.997Z,9.40
2022-09-13T01:21:04.812Z,9.87
2022-09-13T01:23:46.507Z,8.70
2022-09-13T01:26:48.699Z,8.63
2022-09-13T01:30:03.989Z,8.70
2022-09-13T01:32:42.575Z,9.20
2022-09-13T01:35:18.743Z,8.87
2022-09-13T01:37:54.622Z,9.33
2022-09-13T01:40:39.585Z,8.50
2022-09-13T01:43:26.259Z,8.10
2022-09-13T01:46:05.683Z,9.97
2022-09-13T01:48:45.467Z,9.70
2022-09-13T01:51:20.913Z,9.37
2022-09-13T01:53:56.313Z,8.93
2022-09-13T01:56:29.629Z,9.10
2022-09-13T01:59:01.316Z,9.00
2022-09-13T02:01:35.203Z,9.00
2022-09-13T02:04:10.314Z,9.27
2022-09-13T02:06:45.576Z,8.60
2022-09-13T02:09:21.265Z,9.90
2022-09-13T02:11:54.856Z,9.40
2022-09-13T02:14:27.809Z,8.13
2022-09-13T02:17:02.364Z,8.10
2022-09-13T02:19:36.430Z,8.87
2022-09-13T02:22:07.812Z,8.13
2022-09-13T02:24:39.116Z,8.10
2022-09-13T02:27:10.939Z,7.90
2022-09-13T02:29:42.419Z,7.50
2022-09-13T02:32:17.455Z,6.90
2022-09-13T02:34:48.235Z,6.80
2022-09-13T02:37:16.485Z,8.97
2022-09-13T02:39:51.110Z,7.73
2022-09-13T02:42:21.951Z,8.43
2022-09-13T02:44:53.108Z,9.07
2022-09-13T02:47:33.967Z,7.80
2022-09-13T02:50:12.383Z,9.20
2022-09-13T02:52:48.209Z,9.20
2022-09-13T02:55:23.427Z,8.90
2022-09-13T02:58:03.663Z,9.30
2022-09-13T03:00:31.911Z,8.60
2022-09-13T03:03:06.238Z,10.50
2022-09-13T03:05:34.118Z,9.17
2022-09-13T03:08:02.901Z,9.87
2022-09-13T03:10:41.775Z,9.17
2022-09-13T03:13:25.476Z,8.30
2022-09-13T03:16:07.744Z,7.90
2022-09-13T03:18:48.746Z,8.77
2022-09-13T03:21:35.911Z,10.00
2022-09-13T03:24:15.606Z,8.73
2022-09-13T03:26:52.493Z,7.63
2022-09-13T03:29:29.243Z,7.83
2022-09-13T03:32:16.763Z,7.83
2022-09-13T03:34:54.371Z,9.17
2022-09-13T03:37:28.638Z,8.70
2022-09-13T03:40:01.566Z,9.93
2022-09-13T03:42:35.976Z,10.70
2022-09-13T03:45:06.186Z,11.57
2022-09-13T03:47:36.755Z,13.30
2022-09-13T03:50:08.234Z,14.60
2022-09-13T03:52:36.762Z,16.10
2022-09-13T03:55:05.027Z,16.37
2022-09-13T03:57:32.985Z,14.80
2022-09-13T04:00:01.237Z,17.47
2022-09-13T04:02:29.992Z,16.87
2022-09-13T04:04:58.190Z,18.20
2022-09-13T04:07:27.378Z,17.10
2022-09-13T04:09:56.317Z,17.50
2022-09-13T04:12:24.183Z,17.50
2022-09-13T04:14:52.441Z,18.70
2022-09-13T04:17:20.742Z,19.67
2022-09-13T04:19:48.644Z,19.77
2022-09-13T04:22:16.845Z,18.70
2022-09-13T04:24:46.110Z,18.07
2022-09-13T04:27:14.304Z,16.87
2022-09-13T04:29:42.281Z,15.77
2022-09-13T04:32:10.919Z,16.90
2022-09-13T04:34:38.951Z,16.20
2022-09-13T04:37:06.777Z,15.80
2022-09-13T04:39:34.774Z,14.80
2022-09-13T04:42:04.863Z,14.00
2022-09-13T04:44:33.428Z,13.87
2022-09-13T04:47:01.270Z,14.20
2022-09-13T04:49:29.123Z,12.80
2022-09-13T04:51:56.951Z,13.90
2022-09-13T04:54:24.788Z,12.80
2022-09-13T04:56:52.775Z,13.57
2022-09-13T04:59:21.996Z,13.60
2022-09-13T05:01:50.042Z,12.83
2022-09-13T05:04:18.129Z,12.63
2022-09-13T05:06:47.773Z,13.20
2022-09-13T05:09:16.151Z,13.33
2022-09-13T05:11:44.244Z,13.20
2022-09-13T05:14:13.081Z,11.80
2022-09-13T05:16:42.560Z,12.10
2022-09-13T05:19:11.347Z,11.60
2022-09-13T05:21:39.361Z,12.27
2022-09-13T05:24:07.390Z,11.00
2022-09-13T05:26:35.360Z,11.70
2022-09-13T05:29:03.367Z,10.90
2022-09-13T05:31:33.731Z,10.87
2022-09-13T05:34:05.071Z,11.60
2022-09-13T05:36:33.470Z,11.40
2022-09-13T05:39:28.653Z,11.33
2022-09-13T05:41:49.671Z,10.47
2022-09-13T05:44:17.586Z,9.63
2022-09-13T05:46:48.665Z,10.07
2022-09-13T05:49:17.918Z,10.90
2022-09-13T05:51:45.888Z,10.97
2022-09-13T05:54:14.104Z,12.30
2022-09-13T05:56:42.117Z,10.60
2022-09-13T05:59:13.754Z,11.00
2022-09-13T06:01:42.029Z,10.87
2022-09-13T06:04:12.458Z,11.33
2022-09-13T06:06:41.721Z,10.53
2022-09-13T06:09:12.111Z,10.20
2022-09-13T06:11:39.939Z,10.93
2022-09-13T06:14:07.935Z,9.23
2022-09-13T06:16:35.865Z,11.20
2022-09-13T06:19:04.045Z,10.23
2022-09-13T06:21:31.904Z,9.73
2022-09-13T06:24:01.173Z,10.47
2022-09-13T06:26:29.649Z,9.73
2022-09-13T06:28:59.389Z,10.07
2022-09-13T06:31:29.534Z,10.53
2022-09-13T06:33:59.401Z,10.73
2022-09-13T06:36:27.580Z,10.90
2022-09-13T06:38:56.945Z,11.10
2022-09-13T06:41:27.167Z,11.10
2022-09-13T06:43:56.218Z,11.43
2022-09-13T06:46:25.490Z,11.13
2022-09-13T06:48:54.416Z,11.20
2022-09-13T06:51:23.837Z,10.40
2022-09-13T06:53:53.280Z,11.37
2022-09-13T06:56:23.262Z,11.07
2022-09-13T06:58:56.908Z,10.60
2022-09-13T07:01:26.604Z,10.53
2022-09-13T07:04:00.531Z,10.83
2022-09-13T07:06:31.146Z,11.53
2022-09-13T07:09:00.894Z,11.60
2022-09-13T07:11:34.424Z,11.87
2022-09-13T07:14:03.909Z,12.40
2022-09-13T07:16:33.789Z,11.77
2022-09-13T07:19:05.542Z,12.20
2022-09-13T07:21:34.573Z,12.30
2022-09-13T07:24:03.137Z,11.70
2022-09-13T07:26:32.011Z,11.70
2022-09-13T07:29:04.069Z,11.90
2022-09-13T07:31:33.766Z,12.03
2022-09-13T07:34:03.011Z,12.13
2022-09-13T07:36:32.545Z,13.43
2022-09-13T07:39:01.515Z,11.77
2022-09-13T07:41:30.747Z,12.10
2022-09-13T07:44:00.642Z,9.87
2022-09-13T07:46:32.737Z,11.47
2022-09-13T07:49:02.131Z,15.90
2022-09-13T07:51:32.036Z,13.73
2022-09-13T07:54:03.010Z,13.93
2022-09-13T07:56:32.785Z,12.10
2022-09-13T07:59:02.645Z,17.03
2022-09-13T08:01:36.626Z,16.63
2022-09-13T08:04:06.444Z,13.70
2022-09-13T08:06:36.257Z,14.83
2022-09-13T08:09:06.253Z,12.83
2022-09-13T08:11:36.352Z,13.00
2022-09-13T08:14:05.519Z,13.63
2022-09-13T08:16:35.451Z,12.27
2022-09-13T08:19:04.785Z,42.10
2022-09-13T08:21:35.420Z,28.30
2022-09-13T08:24:04.194Z,14.83
2022-09-13T08:26:34.255Z,12.50
2022-09-13T08:29:04.392Z,12.70
2022-09-13T08:31:34.830Z,13.80
2022-09-13T08:34:03.216Z,12.90
2022-09-13T08:36:31.319Z,12.77
2022-09-13T08:39:01.668Z,12.50
2022-09-13T08:41:52.321Z,12.30
2022-09-13T08:44:26.999Z,12.87
2022-09-13T08:47:03.322Z,12.83
2022-09-13T08:49:34.380Z,16.10
2022-09-13T08:52:13.103Z,15.37
2022-09-13T08:54:40.970Z,12.93
2022-09-13T08:57:17.834Z,13.10
2022-09-13T08:59:55.158Z,10.90
2022-09-13T09:02:38.355Z,11.87
2022-09-13T09:05:16.251Z,12.90
2022-09-13T09:07:46.952Z,11.87
2022-09-13T09:10:18.998Z,12.40
2022-09-13T09:12:49.923Z,10.80
2022-09-13T09:15:21.211Z,10.03
2022-09-13T09:17:57.467Z,8.83
2022-09-13T09:20:32.232Z,8.30
2022-09-13T09:23:04.058Z,13.60
2022-09-13T09:25:32.582Z,11.60
2022-09-13T09:28:00.960Z,8.73
2022-09-13T09:30:39.107Z,9.37
2022-09-13T09:33:22.809Z,7.87
2022-09-13T09:36:00.127Z,7.83
2022-09-13T09:38:39.674Z,8.70
2022-09-13T09:41:16.161Z,8.80
2022-09-13T09:43:49.277Z,9.53
2022-09-13T09:46:18.907Z,11.67
2022-09-13T09:48:53.391Z,11.40
2022-09-13T09:51:24.836Z,9.83
2022-09-13T09:54:00.816Z,8.90
2022-09-13T09:56:32.898Z,10.07
2022-09-13T09:59:02.535Z,15.50
2022-09-13T10:01:32.777Z,10.27
2022-09-13T10:04:09.425Z,10.60
2022-09-13T10:06:39.067Z,15.40
2022-09-13T10:09:09.195Z,10.10
2022-09-13T10:11:46.203Z,9.90
2022-09-13T10:14:35.867Z,8.07
2022-09-13T10:17:06.454Z,12.03
2022-09-13T10:19:36.345Z,11.63
2022-09-13T10:22:06.683Z,14.00
2022-09-13T10:24:34.588Z,15.63
2022-09-13T10:27:04.155Z,13.87
2022-09-13T10:29:33.039Z,12.00
2022-09-13T10:32:08.424Z,15.30
2022-09-13T10:34:38.470Z,13.30
2022-09-13T10:37:14.725Z,24.87
2022-09-13T10:40:02.492Z,14.40
2022-09-13T10:42:31.060Z,12.10
2022-09-13T10:45:02.103Z,11.10
2022-09-13T10:47:35.748Z,11.43
2022-09-13T10:50:22.067Z,11.10
2022-09-13T10:52:51.151Z,11.37
2022-09-13T10:55:28.323Z,9.80
2022-09-13T10:58:13.473Z,10.83
2022-09-13T11:01:01.601Z,10.30
2022-09-13T11:03:40.471Z,10.57
2022-09-13T11:06:17.354Z,10.80
2022-09-13T11:08:53.604Z,11.40
2022-09-13T11:11:28.265Z,10.77
2022-09-13T11:14:08.374Z,9.60
2022-09-13T11:16:49.811Z,10.50
2022-09-13T11:19:52.998Z,10.73
2022-09-13T11:22:46.344Z,10.07
2022-09-13T11:25:25.560Z,9.00
2022-09-13T11:28:00.519Z,9.80
2022-09-13T11:30:32.405Z,9.30
2022-09-13T11:33:19.209Z,19.13
2022-09-13T11:36:01.031Z,28.47
2022-09-13T11:38:41.797Z,25.47
2022-09-13T11:41:18.715Z,21.10
2022-09-13T11:44:01.286Z,14.63
2022-09-13T11:46:40.435Z,13.80
2022-09-13T11:49:38.470Z,11.40
2022-09-13T11:52:13.610Z,9.83
2022-09-13T11:54:55.291Z,9.83
2022-09-13T11:57:27.909Z,10.40
2022-09-13T12:00:00.215Z,10.70
2022-09-13T12:02:33.445Z,10.47
2022-09-13T12:05:21.585Z,10.67
2022-09-13T12:07:54.272Z,8.43
2022-09-13T12:10:26.803Z,8.63
2022-09-13T12:12:56.226Z,9.03
2022-09-13T12:15:33.684Z,10.73
2022-09-13T12:18:06.671Z,9.20
2022-09-13T12:20:37.879Z,8.03
2022-09-13T12:23:12.574Z,8.90
2022-09-13T12:25:49.388Z,7.93
2022-09-13T12:28:22.440Z,7.30
2022-09-13T12:30:55.611Z,8.67
2022-09-13T12:33:23.870Z,8.03
2022-09-13T12:36:04.300Z,8.43
2022-09-13T12:39:11.407Z,9.60
2022-09-13T12:41:53.363Z,8.17
2022-09-13T12:44:42.428Z,8.47
2022-09-13T12:47:52.017Z,8.20
2022-09-13T12:50:44.959Z,8.07
2022-09-13T12:53:36.024Z,8.20
2022-09-13T12:56:17.311Z,7.53
2022-09-13T12:59:04.218Z,7.67
2022-09-13T13:01:33.252Z,6.57
2022-09-13T13:04:09.665Z,6.97
2022-09-13T13:06:48.957Z,5.80
2022-09-13T13:09:28.743Z,5.70
2022-09-13T13:11:59.288Z,6.03
2022-09-13T13:14:48.224Z,4.97
2022-09-13T13:17:45.663Z,5.80
2022-09-13T13:21:03.960Z,10.53
2022-09-13T13:23:35.230Z,8.90
2022-09-13T13:26:13.307Z,6.47
2022-09-13T13:29:07.047Z,5.70
2022-09-13T13:31:41.718Z,5.27
2022-09-13T13:34:30.244Z,5.60
2022-09-13T13:37:02.248Z,5.83
2022-09-13T13:39:39.776Z,8.47
2022-09-13T13:42:26.163Z,13.60
2022-09-13T13:45:16.703Z,8.30
2022-09-13T13:48:20.578Z,7.27
2022-09-13T13:51:18.364Z,6.43
2022-09-13T13:53:49.919Z,6.07
2022-09-13T13:56:33.842Z,6.07
2022-09-13T13:59:07.511Z,7.40
2022-09-13T14:01:40.150Z,6.17
2022-09-13T14:04:36.580Z,6.17
2022-09-13T14:07:19.736Z,6.57
2022-09-13T14:09:57.608Z,10.10
2022-09-13T14:12:42.631Z,13.30
2022-09-13T14:15:25.305Z,11.37
2022-09-13T14:18:28.204Z,8.90
2022-09-13T14:21:03.733Z,8.40
2022-09-13T14:23:34.298Z,7.20
2022-09-13T14:26:02.794Z,7.00
2022-09-13T14:28:33.037Z,7.50
2022-09-13T14:31:01.310Z,6.53
2022-09-13T14:33:32.067Z,6.87
2022-09-13T14:36:06.914Z,6.30
2022-09-13T14:38:37.071Z,6.53
2022-09-13T14:41:14.473Z,6.37
2022-09-13T14:43:43.304Z,7.03
2022-09-13T14:46:16.143Z,7.27
2022-09-13T14:48:51.390Z,6.73
2022-09-13T14:51:24.279Z,6.90
2022-09-13T14:53:58.280Z,6.17
2022-09-13T14:56:34.176Z,6.80
2022-09-13T14:59:06.568Z,7.20
2022-09-13T15:01:36.489Z,23.37
2022-09-13T15:04:06.478Z,10.03
2022-09-13T15:06:38.138Z,9.50
2022-09-13T15:09:27.459Z,6.97
2022-09-13T15:12:01.086Z,12.50
2022-09-13T15:14:31.167Z,11.00
2022-09-13T15:17:09.095Z,6.37
2022-09-13T15:19:39.638Z,6.80
2022-09-13T15:22:18.742Z,7.87
2022-09-13T15:24:50.943Z,24.63
2022-09-13T15:27:26.078Z,16.43
2022-09-13T15:29:56.027Z,7.70
2022-09-13T15:32:40.472Z,9.00
2022-09-13T15:35:19.412Z,7.43
2022-09-13T15:37:47.290Z,5.50
2022-09-13T15:40:19.994Z,4.93
2022-09-13T15:42:49.547Z,4.70
2022-09-13T15:45:18.571Z,3.83
2022-09-13T15:47:47.817Z,5.23
2022-09-13T15:50:26.703Z,3.27
2022-09-13T15:52:55.450Z,3.50
2022-09-13T15:55:25.570Z,3.70
2022-09-13T15:57:53.794Z,3.87
2022-09-13T16:00:23.649Z,3.50
2022-09-13T16:02:51.855Z,3.57
2022-09-13T16:05:20.459Z,4.60
2022-09-13T16:07:48.658Z,4.10
2022-09-13T16:10:19.231Z,5.03
2022-09-13T16:12:48.718Z,5.57
2022-09-13T16:15:17.012Z,5.67
2022-09-13T16:17:44.923Z,4.37
2022-09-13T16:20:15.311Z,4.33
2022-09-13T16:22:43.350Z,3.90
2022-09-13T16:25:13.977Z,4.10
2022-09-13T16:27:42.754Z,3.50
2022-09-13T16:30:15.369Z,3.60
2022-09-13T16:32:43.676Z,3.93
2022-09-13T16:35:13.600Z,3.80
2022-09-13T16:37:42.005Z,3.80
2022-09-13T16:40:11.500Z,3.63
2022-09-13T16:42:39.571Z,3.40
2022-09-13T16:45:08.719Z,4.53
2022-09-13T16:47:39.389Z,3.87
2022-09-13T16:50:08.345Z,3.90
2022-09-13T16:52:36.890Z,3.57
2022-09-13T16:55:06.124Z,3.77
2022-09-13T16:57:34.395Z,3.90
2022-09-13T17:00:04.293Z,3.43
2022-09-13T17:02:32.606Z,3.50
2022-09-13T17:05:02.001Z,3.23
2022-09-13T17:07:29.839Z,3.70
2022-09-13T17:09:57.783Z,3.40
2022-09-13T17:12:25.760Z,3.77
2022-09-13T17:14:54.995Z,3.73
2022-09-13T17:17:22.867Z,3.97
2022-09-13T17:19:52.763Z,3.40
2022-09-13T17:22:21.968Z,3.73
2022-09-13T17:24:49.858Z,3.90
2022-09-13T17:27:17.774Z,3.37
2022-09-13T17:29:45.624Z,3.63
2022-09-13T17:32:13.448Z,3.97
2022-09-13T17:34:41.411Z,4.07
2022-09-13T17:37:09.552Z,3.87
2022-09-13T17:39:38.890Z,4.00
2022-09-13T17:42:07.152Z,3.97
2022-09-13T17:44:35.014Z,4.07
2022-09-13T17:47:02.913Z,3.63
2022-09-13T17:49:30.863Z,3.67
2022-09-13T17:51:58.759Z,3.70
2022-09-13T17:54:27.118Z,3.70
2022-09-13T17:56:56.306Z,3.47
2022-09-13T17:59:24.196Z,4.20
2022-09-13T18:01:54.093Z,4.13
2022-09-13T18:04:23.639Z,3.90
2022-09-13T18:06:52.783Z,4.20
2022-09-13T18:09:21.374Z,3.97
2022-09-13T18:11:50.472Z,4.20
2022-09-13T18:14:20.525Z,4.73
2022-09-13T18:16:55.308Z,4.00
2022-09-13T18:19:44.455Z,4.40
2022-09-13T18:22:12.032Z,4.70
2022-09-13T18:24:40.764Z,4.00
2022-09-13T18:27:08.684Z,3.63
2022-09-13T18:29:37.954Z,4.20
2022-09-13T18:32:06.072Z,4.00
2022-09-13T18:34:33.961Z,4.17
2022-09-13T18:37:01.867Z,4.30
2022-09-13T18:39:29.693Z,4.30
2022-09-13T18:41:57.655Z,4.40
2022-09-13T18:44:25.661Z,5.40
2022-09-13T18:46:55.921Z,4.77
2022-09-13T18:49:23.749Z,4.67
2022-09-13T18:51:51.617Z,5.10
2022-09-13T18:54:19.757Z,5.10
2022-09-13T18:56:48.988Z,5.10
2022-09-13T18:59:16.980Z,5.00
2022-09-13T19:01:45.723Z,4.90
2022-09-13T19:04:16.907Z,5.40
2022-09-13T19:06:46.018Z,5.07
2022-09-13T19:09:15.169Z,5.27
2022-09-13T19:11:47.860Z,5.23
2022-09-13T19:14:17.199Z,4.63
2022-09-13T19:16:46.941Z,4.53
2022-09-13T19:19:16.451Z,4.17
2022-09-13T19:21:44.540Z,4.90
2022-09-13T19:24:17.629Z,4.97
2022-09-13T19:26:47.207Z,5.10
2022-09-13T19:29:16.924Z,4.30
2022-09-13T19:31:47.564Z,5.03
2022-09-13T19:34:17.769Z,5.20
2022-09-13T19:36:46.149Z,5.13
2022-09-13T19:39:14.281Z,4.80
2022-09-13T19:41:42.403Z,5.17
2022-09-13T19:44:13.852Z,5.10
2022-09-13T19:46:43.098Z,5.60
2022-09-13T19:49:13.788Z,5.00
2022-09-13T19:51:47.557Z,5.30
2022-09-13T19:54:19.422Z,5.30
2022-09-13T19:56:47.859Z,4.93
2022-09-13T19:59:19.664Z,5.80
2022-09-13T20:01:48.691Z,5.53
2022-09-13T20:04:18.189Z,5.70
2022-09-13T20:06:50.007Z,5.23
2022-09-13T20:09:19.980Z,4.97
2022-09-13T20:11:48.796Z,5.70
2022-09-13T20:14:19.701Z,6.07
2022-09-13T20:16:47.778Z,4.93
2022-09-13T20:19:39.381Z,5.00
2022-09-13T20:22:08.830Z,6.17
2022-09-13T20:24:36.756Z,5.77
2022-09-13T20:27:04.798Z,6.73
2022-09-13T20:29:32.755Z,6.00
2022-09-13T20:32:02.133Z,6.10
2022-09-13T20:34:30.041Z,5.60
2022-09-13T20:36:57.879Z,5.90
2022-09-13T20:39:27.205Z,5.80
2022-09-13T20:41:55.431Z,5.43
2022-09-13T20:44:23.411Z,5.60
2022-09-13T20:46:51.294Z,6.00
2022-09-13T20:49:19.593Z,5.63
2022-09-13T20:51:49.306Z,5.50
2022-09-13T20:54:17.397Z,5.77
2022-09-13T20:56:46.755Z,5.63
2022-09-13T20:59:14.746Z,5.17
2022-09-13T21:01:42.694Z,5.70
2022-09-13T21:04:10.955Z,5.43
2022-09-13T21:07:02.509Z,5.30
2022-09-13T21:09:29.542Z,6.20
2022-09-13T21:11:58.793Z,6.73
2022-09-13T21:14:26.679Z,5.60
2022-09-13T21:16:56.741Z,6.33
2022-09-13T21:19:25.900Z,6.60
2022-09-13T21:21:54.441Z,6.53
2022-09-13T21:24:22.418Z,6.50
2022-09-13T21:26:50.280Z,6.10
2022-09-13T21:29:19.461Z,5.80
2022-09-13T21:31:47.349Z,7.17
2022-09-13T21:34:16.777Z,5.30
2022-09-13T21:36:46.027Z,6.33
2022-09-13T21:39:14.795Z,5.93
2022-09-13T21:41:42.995Z,5.80
2022-09-13T21:44:11.115Z,6.30
2022-09-13T21:46:41.476Z,6.60
2022-09-13T21:49:11.519Z,6.57
2022-09-13T21:51:41.246Z,7.30
2022-09-13T21:54:11.080Z,6.33
2022-09-13T21:56:40.905Z,6.63
2022-09-13T21:59:12.662Z,6.90
2022-09-13T22:01:43.519Z,6.70
2022-09-13T22:04:16.098Z,6.70
2022-09-13T22:06:44.269Z,6.10
2022-09-13T22:09:13.345Z,6.73
2022-09-13T22:11:43.570Z,7.57
2022-09-13T22:14:13.248Z,7.00
2022-09-13T22:16:43.660Z,6.17
2022-09-13T22:19:13.888Z,6.30
2022-09-13T22:21:43.665Z,7.37
2022-09-13T22:24:16.317Z,6.50
2022-09-13T22:26:44.915Z,6.03
2022-09-13T22:29:13.142Z,5.30
2022-09-13T22:31:43.779Z,5.47
2022-09-13T22:34:14.424Z,5.00
2022-09-13T22:36:43.091Z,5.60
2022-09-13T22:39:12.396Z,6.00
2022-09-13T22:41:40.794Z,6.17
2022-09-13T22:44:09.487Z,6.47
2022-09-13T22:46:38.977Z,5.23
2022-09-13T22:49:09.035Z,5.17
2022-09-13T22:51:36.848Z,6.20
2022-09-13T22:54:07.228Z,6.00
2022-09-13T22:56:36.747Z,6.40
2022-09-13T22:59:07.215Z,6.20
2022-09-13T23:01:36.030Z,6.77
2022-09-13T23:04:04.788Z,6.30
2022-09-13T23:06:34.883Z,6.10
2022-09-13T23:09:05.780Z,6.13
2022-09-13T23:11:35.812Z,6.00
2022-09-13T23:14:06.299Z,6.83
2022-09-13T23:16:36.584Z,6.53
2022-09-13T23:19:04.641Z,7.40
2022-09-13T23:21:35.643Z,7.10
2022-09-13T23:24:05.648Z,7.33
2022-09-13T23:26:34.968Z,6.27
2022-09-13T23:29:04.279Z,6.87
2022-09-13T23:31:34.831Z,7.53
2022-09-13T23:34:04.483Z,6.90
2022-09-13T23:36:36.457Z,7.00
2022-09-13T23:39:07.870Z,6.23
2022-09-13T23:41:36.041Z,6.67
2022-09-13T23:44:05.021Z,7.20
2022-09-13T23:46:32.909Z,7.80
2022-09-13T23:49:00.785Z,7.90
2022-09-13T23:51:28.722Z,7.00
2022-09-13T23:54:00.813Z,7.73
2022-09-13T23:56:31.596Z,7.97
2022-09-13T23:59:01.331Z,7.53
